createdAt,value
2022-09-13T00:00:51.682Z,84.80
2022-09-13T00:03:41.139Z,84.90
2022-09-13T00:06:16.048Z,84.85
2022-09-13T00:08:48.484Z,84.92
2022-09-13T00:11:23.419Z,84.59
2022-09-13T00:13:58.489Z,84.57
2022-09-13T00:16:32.402Z,84.19
2022-09-13T00:19:04.441Z,84.33
2022-09-13T00:21:36.819Z,84.53
2022-09-13T00:24:09.593Z,85.04
2022-09-13T00:26:41.435Z,85.30
2022-09-13T00:29:13.276Z,85.35
2022-09-13T00:31:45.169Z,85.34
2022-09-13T00:34:17.722Z,85.15
2022-09-13T00:36:49.656Z,85.35
2022-09-13T00:39:22.012Z,85.33
2022-09-13T00:41:54.058Z,85.59
2022-09-13T00:44:55.183Z,85.67
2022-09-13T00:47:33.238Z,85.96
2022-09-13T00:50:12.519Z,86.08
2022-09-13T00:52:48.383Z,86.47
2022-09-13T00:55:25.552Z,86.35
2022-09-13T00:58:01.534Z,86.09
2022-09-13T01:00:33.853Z,86.02
2022-09-13T01:03:11.992Z,86.13
2022-09-13T01:05:48.800Z,86.07
2022-09-13T01:08:23.174Z,86.37
2022-09-13T01:10:58.294Z,86.35
2022-09-13T01:13:35.118Z,86.50
2022-09-13T01:16:07.964Z,86.63
2022-09-13T01:18:40.330Z,86.95
2022-09-13T01:21:49.011Z,87.06
2022-09-13T01:24:48.219Z,86.83
2022-09-13T01:27:33.907Z,86.90
2022-09-13T01:30:19.251Z,87.18
2022-09-13T01:33:08.047Z,87.28
2022-09-13T01:35:51.931Z,87.60
2022-09-13T01:38:35.815Z,87.84
2022-09-13T01:41:21.481Z,87.83
2022-09-13T01:44:01.532Z,87.76
2022-09-13T01:46:40.284Z,87.81
2022-09-13T01:49:21.514Z,88.05
2022-09-13T01:52:00.653Z,88.12
2022-09-13T01:54:39.604Z,88.10
2022-09-13T01:57:17.789Z,88.30
2022-09-13T01:59:54.601Z,88.29
2022-09-13T02:02:36.900Z,88.07
2022-09-13T02:05:28.856Z,88.17
2022-09-13T02:08:06.299Z,88.16
2022-09-13T02:10:42.837Z,88.10
2022-09-13T02:13:23.837Z,88.09
2022-09-13T02:16:00.927Z,88.48
2022-09-13T02:18:36.943Z,88.39
2022-09-13T02:21:13.740Z,88.44
2022-09-13T02:23:50.885Z,88.53
2022-09-13T02:26:25.354Z,88.68
2022-09-13T02:29:00.524Z,88.45
2022-09-13T02:31:38.957Z,88.66
2022-09-13T02:34:16.407Z,88.75
2022-09-13T02:36:50.411Z,88.77
2022-09-13T02:39:25.917Z,88.73
2022-09-13T02:42:01.734Z,88.68
2022-09-13T02:44:38.374Z,88.47
2022-09-13T02:47:21.638Z,88.49
2022-09-13T02:50:03.655Z,88.61
2022-09-13T02:52:46.176Z,88.81
2022-09-13T02:55:25.983Z,89.03
2022-09-13T02:58:06.049Z,89.18
2022-09-13T03:00:38.193Z,89.49
2022-09-13T03:03:13.824Z,89.28
2022-09-13T03:05:46.376Z,89.29
2022-09-13T03:08:20.111Z,89.16
2022-09-13T03:11:04.983Z,89.24
2022-09-13T03:13:56.218Z,88.99
2022-09-13T03:16:43.809Z,88.93
2022-09-13T03:19:40.009Z,88.95
2022-09-13T03:22:25.900Z,89.01
2022-09-13T03:25:08.397Z,88.88
2022-09-13T03:27:53.439Z,89.09
2022-09-13T03:30:25.389Z,89.11
2022-09-13T03:33:04.827Z,89.26
2022-09-13T03:35:42.538Z,89.39
2022-09-13T03:38:18.274Z,89.48
2022-09-13T03:40:54.843Z,89.19
2022-09-13T03:43:35.777Z,89.32
2022-09-13T03:46:12.225Z,89.20
2022-09-13T03:48:46.436Z,89.14
2022-09-13T03:51:18.656Z,89.31
2022-09-13T03:53:56.385Z,89.59
2022-09-13T03:56:28.291Z,89.29
2022-09-13T03:59:00.079Z,89.29
2022-09-13T04:01:32.333Z,89.49
2022-09-13T04:04:04.375Z,89.44
2022-09-13T04:06:36.521Z,89.24
2022-09-13T04:09:08.339Z,89.08
2022-09-13T04:11:42.056Z,89.41
2022-09-13T04:14:18.553Z,89.45
2022-09-13T04:16:50.555Z,89.68
2022-09-13T04:19:23.385Z,89.38
2022-09-13T04:21:57.045Z,89.62
2022-09-13T04:24:31.233Z,89.85
2022-09-13T04:27:06.678Z,89.68
2022-09-13T04:29:39.016Z,90.03
2022-09-13T04:32:11.181Z,89.95
2022-09-13T04:34:43.196Z,89.87
2022-09-13T04:37:15.018Z,90.01
2022-09-13T04:39:47.030Z,89.94
2022-09-13T04:42:19.794Z,89.82
2022-09-13T04:44:51.562Z,89.57
2022-09-13T04:47:23.656Z,89.92
2022-09-13T04:49:55.437Z,89.86
2022-09-13T04:52:27.346Z,90.16
2022-09-13T04:55:01.665Z,90.10
2022-09-13T04:57:34.213Z,90.35
2022-09-13T05:00:07.976Z,90.54
2022-09-13T05:02:39.912Z,90.47
2022-09-13T05:05:12.348Z,90.73
2022-09-13T05:07:44.338Z,90.93
2022-09-13T05:10:19.388Z,91.00
2022-09-13T05:12:51.534Z,91.20
2022-09-13T05:15:23.432Z,91.30
2022-09-13T05:17:55.279Z,91.28
2022-09-13T05:20:27.093Z,91.47
2022-09-13T05:22:59.562Z,91.57
2022-09-13T05:25:31.382Z,91.36
2022-09-13T05:28:03.521Z,91.33
2022-09-13T05:30:42.104Z,91.48
2022-09-13T05:33:14.175Z,91.48
2022-09-13T05:35:46.171Z,91.51
2022-09-13T05:38:18.025Z,91.68
2022-09-13T05:40:55.145Z,91.36
2022-09-13T05:43:28.669Z,91.54
2022-09-13T05:46:05.679Z,91.34
2022-09-13T05:48:37.870Z,91.40
2022-09-13T05:51:12.252Z,91.46
2022-09-13T05:53:45.977Z,91.28
2022-09-13T05:56:20.488Z,91.16
2022-09-13T05:58:55.081Z,91.03
2022-09-13T06:01:29.446Z,91.08
2022-09-13T06:04:01.841Z,91.12
2022-09-13T06:06:33.599Z,90.95
2022-09-13T06:09:06.959Z,90.97
2022-09-13T06:11:38.917Z,90.98
2022-09-13T06:14:11.165Z,90.99
2022-09-13T06:16:42.982Z,91.06
2022-09-13T06:19:15.163Z,90.88
2022-09-13T06:21:47.076Z,91.05
2022-09-13T06:24:18.830Z,91.00
2022-09-13T06:26:51.001Z,90.90
2022-09-13T06:29:22.883Z,90.98
2022-09-13T06:31:55.089Z,91.10
2022-09-13T06:34:31.096Z,91.20
2022-09-13T06:37:04.276Z,91.21
2022-09-13T06:39:36.325Z,91.13
2022-09-13T06:42:08.669Z,91.23
2022-09-13T06:44:46.073Z,91.16
2022-09-13T06:47:18.033Z,91.10
2022-09-13T06:49:50.352Z,91.25
2022-09-13T06:52:22.236Z,91.21
2022-09-13T06:54:54.254Z,91.25
2022-09-13T06:57:26.244Z,91.23
2022-09-13T06:59:57.993Z,91.10
2022-09-13T07:02:29.878Z,91.18
2022-09-13T07:05:01.923Z,90.89
2022-09-13T07:07:34.108Z,90.88
2022-09-13T07:10:07.401Z,90.82
2022-09-13T07:12:41.236Z,90.93
2022-09-13T07:15:14.404Z,90.80
2022-09-13T07:17:46.213Z,90.70
2022-09-13T07:20:18.211Z,90.64
2022-09-13T07:22:50.340Z,90.60
2022-09-13T07:25:22.671Z,90.44
2022-09-13T07:27:54.618Z,90.40
2022-09-13T07:30:27.009Z,90.33
2022-09-13T07:32:58.972Z,90.39
2022-09-13T07:35:30.970Z,90.37
2022-09-13T07:38:02.929Z,90.17
2022-09-13T07:40:36.837Z,90.20
2022-09-13T07:43:08.701Z,90.35
2022-09-13T07:45:40.597Z,90.08
2022-09-13T07:48:12.552Z,90.14
2022-09-13T07:50:44.411Z,90.00
2022-09-13T07:53:16.272Z,89.97
2022-09-13T07:55:48.235Z,89.98
2022-09-13T07:58:20.501Z,89.77
2022-09-13T08:00:52.535Z,89.54
2022-09-13T08:03:24.354Z,89.29
2022-09-13T08:05:56.344Z,89.26
2022-09-13T08:08:28.407Z,89.17
2022-09-13T08:11:01.431Z,88.96
2022-09-13T08:13:34.294Z,88.85
2022-09-13T08:16:08.270Z,88.98
2022-09-13T08:18:44.056Z,88.66
2022-09-13T08:21:16.717Z,88.37
2022-09-13T08:23:48.989Z,88.17
2022-09-13T08:26:21.155Z,87.88
2022-09-13T08:28:59.049Z,87.65
2022-09-13T08:31:32.075Z,87.43
2022-09-13T08:34:04.004Z,87.31
2022-09-13T08:36:36.990Z,87.19
2022-09-13T08:39:10.198Z,87.16
2022-09-13T08:42:21.135Z,87.03
2022-09-13T08:44:57.654Z,86.90
2022-09-13T08:47:37.142Z,86.80
2022-09-13T08:50:18.371Z,86.37
2022-09-13T08:53:03.882Z,85.95
2022-09-13T08:55:47.021Z,85.67
2022-09-13T08:58:35.125Z,85.54
2022-09-13T09:01:14.844Z,85.18
2022-09-13T09:03:53.033Z,84.98
2022-09-13T09:06:25.528Z,84.55
2022-09-13T09:09:02.661Z,84.12
2022-09-13T09:11:43.119Z,83.87
2022-09-13T09:14:25.789Z,83.31
2022-09-13T09:17:04.192Z,82.85
2022-09-13T09:19:40.938Z,82.69
2022-09-13T09:22:18.475Z,82.78
2022-09-13T09:24:54.674Z,82.88
2022-09-13T09:27:27.209Z,82.78
2022-09-13T09:29:59.949Z,82.22
2022-09-13T09:32:48.582Z,81.65
2022-09-13T09:35:29.383Z,80.91
2022-09-13T09:38:31.528Z,81.18
2022-09-13T09:41:06.881Z,80.47
2022-09-13T09:43:45.749Z,80.25
2022-09-13T09:46:22.319Z,79.58
2022-09-13T09:48:58.411Z,78.95
2022-09-13T09:51:32.330Z,78.95
2022-09-13T09:54:06.502Z,78.50
2022-09-13T09:56:38.698Z,77.56
2022-09-13T09:59:29.554Z,77.69
2022-09-13T10:02:04.994Z,77.70
2022-09-13T10:04:37.226Z,77.69
2022-09-13T10:07:27.218Z,77.57
2022-09-13T10:10:05.942Z,77.41
2022-09-13T10:12:41.049Z,77.03
2022-09-13T10:15:20.515Z,76.77
2022-09-13T10:18:40.030Z,76.62
2022-09-13T10:21:21.455Z,76.59
2022-09-13T10:23:59.761Z,76.66
2022-09-13T10:26:36.529Z,77.08
2022-09-13T10:29:14.445Z,76.95
2022-09-13T10:31:50.156Z,77.03
2022-09-13T10:34:26.176Z,77.09
2022-09-13T10:37:01.386Z,77.40
2022-09-13T10:39:37.548Z,77.29
2022-09-13T10:42:11.537Z,77.42
2022-09-13T10:44:47.538Z,77.45
2022-09-13T10:47:26.111Z,77.56
2022-09-13T10:50:00.434Z,77.87
2022-09-13T10:52:35.687Z,77.86
2022-09-13T10:55:37.568Z,77.84
2022-09-13T10:58:19.858Z,77.84
2022-09-13T11:01:15.467Z,78.17
2022-09-13T11:04:35.181Z,78.17
2022-09-13T11:07:28.221Z,78.62
2022-09-13T11:10:09.763Z,78.94
2022-09-13T11:12:47.881Z,78.87
2022-09-13T11:15:31.010Z,78.93
2022-09-13T11:18:34.288Z,78.30
2022-09-13T11:21:18.085Z,78.05
2022-09-13T11:24:17.940Z,77.53
2022-09-13T11:27:01.387Z,77.20
2022-09-13T11:29:45.998Z,76.78
2022-09-13T11:32:32.637Z,76.63
2022-09-13T11:35:28.151Z,77.25
2022-09-13T11:38:14.165Z,77.16
2022-09-13T11:40:59.893Z,77.25
2022-09-13T11:43:49.137Z,76.97
2022-09-13T11:46:32.414Z,76.11
2022-09-13T11:49:28.295Z,75.71
2022-09-13T11:52:10.599Z,74.71
2022-09-13T11:54:56.607Z,74.45
2022-09-13T11:57:37.270Z,74.00
2022-09-13T12:00:22.119Z,74.32
2022-09-13T12:03:04.594Z,74.07
2022-09-13T12:05:42.746Z,74.09
2022-09-13T12:08:19.656Z,73.74
2022-09-13T12:10:55.363Z,73.55
2022-09-13T12:13:31.231Z,73.56
2022-09-13T12:16:06.155Z,73.22
2022-09-13T12:18:44.682Z,72.66
2022-09-13T12:21:23.117Z,73.22
2022-09-13T12:24:02.848Z,72.27
2022-09-13T12:26:41.173Z,72.46
2022-09-13T12:29:20.466Z,72.30
2022-09-13T12:31:54.159Z,72.91
2022-09-13T12:34:32.601Z,73.50
2022-09-13T12:37:28.300Z,73.35
2022-09-13T12:40:37.247Z,72.71
2022-09-13T12:43:37.389Z,72.49
2022-09-13T12:46:27.256Z,72.40
2022-09-13T12:49:43.794Z,72.71
2022-09-13T12:52:38.465Z,72.62
2022-09-13T12:55:48.708Z,72.85
2022-09-13T12:58:41.973Z,73.31
2022-09-13T13:01:18.465Z,73.50
2022-09-13T13:03:56.256Z,73.27
2022-09-13T13:06:34.669Z,72.89
2022-09-13T13:09:28.082Z,73.09
2022-09-13T13:12:01.353Z,72.83
2022-09-13T13:14:53.760Z,72.59
2022-09-13T13:17:40.738Z,72.90
2022-09-13T13:20:48.943Z,72.82
2022-09-13T13:23:25.556Z,72.88
2022-09-13T13:26:15.100Z,73.23
2022-09-13T13:29:15.785Z,73.68
2022-09-13T13:32:13.097Z,74.07
2022-09-13T13:34:48.166Z,74.16
2022-09-13T13:37:33.436Z,74.28
2022-09-13T13:40:29.324Z,74.39
2022-09-13T13:43:32.382Z,74.22
2022-09-13T13:46:32.285Z,74.15
2022-09-13T13:49:46.566Z,74.03
2022-09-13T13:52:40.873Z,73.64
2022-09-13T13:55:42.831Z,73.35
2022-09-13T13:58:40.107Z,73.47
2022-09-13T14:01:29.301Z,73.06
2022-09-13T14:04:45.059Z,72.93
2022-09-13T14:07:34.446Z,72.98
2022-09-13T14:10:15.158Z,72.87
2022-09-13T14:13:03.984Z,72.62
2022-09-13T14:15:52.809Z,72.55
2022-09-13T14:18:43.394Z,72.80
2022-09-13T14:21:24.914Z,73.14
2022-09-13T14:27:04.926Z,72.90
2022-09-13T14:29:39.341Z,72.87
2022-09-13T14:32:17.325Z,73.15
2022-09-13T14:34:59.329Z,73.10
2022-09-13T14:37:34.985Z,73.24
2022-09-13T14:40:19.189Z,73.44
2022-09-13T14:42:52.449Z,73.56
2022-09-13T14:45:28.605Z,74.06
2022-09-13T14:48:07.657Z,74.09
2022-09-13T14:50:46.995Z,74.43
2022-09-13T14:53:22.247Z,74.25
2022-09-13T14:55:57.302Z,74.26
2022-09-13T14:58:33.801Z,74.41
2022-09-13T15:01:10.373Z,74.63
2022-09-13T15:03:45.747Z,74.65
2022-09-13T15:06:26.536Z,74.42
2022-09-13T15:09:02.178Z,74.30
2022-09-13T15:11:37.108Z,74.33
2022-09-13T15:14:31.247Z,74.46
2022-09-13T15:17:11.051Z,74.45
2022-09-13T15:19:45.366Z,74.43
2022-09-13T15:22:33.310Z,74.67
2022-09-13T15:25:06.638Z,74.76
2022-09-13T15:27:48.708Z,74.85
2022-09-13T15:30:26.900Z,74.98
2022-09-13T15:33:23.236Z,74.94
2022-09-13T15:36:14.082Z,75.37
2022-09-13T15:39:04.972Z,75.77
2022-09-13T15:41:38.016Z,76.22
2022-09-13T15:44:10.906Z,76.39
2022-09-13T15:46:48.672Z,76.55
2022-09-13T15:49:38.912Z,76.75
2022-09-13T15:52:11.408Z,76.92
2022-09-13T15:54:44.426Z,77.28
2022-09-13T15:57:22.579Z,77.86
2022-09-13T15:59:56.263Z,78.14
2022-09-13T16:02:32.514Z,78.32
2022-09-13T16:05:04.625Z,78.69
2022-09-13T16:07:36.990Z,78.74
2022-09-13T16:10:14.781Z,79.07
2022-09-13T16:12:47.287Z,79.17
2022-09-13T16:15:19.796Z,79.25
2022-09-13T16:17:54.255Z,79.43
2022-09-13T16:20:27.799Z,79.54
2022-09-13T16:22:59.633Z,79.65
2022-09-13T16:25:31.753Z,79.88
2022-09-13T16:28:03.989Z,79.95
2022-09-13T16:30:36.901Z,79.92
2022-09-13T16:33:09.123Z,80.09
2022-09-13T16:35:41.767Z,80.41
2022-09-13T16:38:17.444Z,80.57
2022-09-13T16:40:49.218Z,80.51
2022-09-13T16:43:21.355Z,80.58
2022-09-13T16:45:53.346Z,80.57
2022-09-13T16:48:25.370Z,80.67
2022-09-13T16:51:02.302Z,80.76
2022-09-13T16:53:36.342Z,80.69
2022-09-13T16:56:12.734Z,80.96
2022-09-13T16:58:46.781Z,81.10
2022-09-13T17:01:20.754Z,81.19
2022-09-13T17:03:54.977Z,81.20
2022-09-13T17:06:28.487Z,81.11
2022-09-13T17:09:03.526Z,81.13
2022-09-13T17:11:38.032Z,81.13
2022-09-13T17:14:12.810Z,81.25
2022-09-13T17:16:47.847Z,81.18
2022-09-13T17:19:23.368Z,81.28
2022-09-13T17:21:58.030Z,81.36
2022-09-13T17:24:32.295Z,81.32
2022-09-13T17:27:07.243Z,81.43
2022-09-13T17:29:39.903Z,81.49
2022-09-13T17:32:12.194Z,81.61
2022-09-13T17:35:12.494Z,81.85
2022-09-13T17:37:44.951Z,81.86
2022-09-13T17:40:18.718Z,82.01
2022-09-13T17:42:51.912Z,82.02
2022-09-13T17:45:25.375Z,81.88
2022-09-13T17:47:59.476Z,81.75
2022-09-13T17:50:32.126Z,81.78
2022-09-13T17:53:05.691Z,81.91
2022-09-13T17:55:38.371Z,81.94
2022-09-13T17:58:10.939Z,82.15
2022-09-13T18:00:44.952Z,82.41
2022-09-13T18:03:17.656Z,82.51
2022-09-13T18:05:56.722Z,82.72
2022-09-13T18:08:31.176Z,83.27
2022-09-13T18:11:14.744Z,83.25
2022-09-13T18:13:49.723Z,84.04
2022-09-13T18:16:24.526Z,84.73
2022-09-13T18:18:58.461Z,84.90
2022-09-13T18:21:34.579Z,85.38
2022-09-13T18:24:08.814Z,85.77
2022-09-13T18:26:41.734Z,86.58
2022-09-13T18:29:15.896Z,87.14
2022-09-13T18:31:48.486Z,87.53
2022-09-13T18:34:24.614Z,87.53
2022-09-13T18:37:00.170Z,87.31
2022-09-13T18:39:32.881Z,87.27
2022-09-13T18:42:05.835Z,87.32
2022-09-13T18:44:38.821Z,87.39
2022-09-13T18:47:14.778Z,87.32
2022-09-13T18:49:47.381Z,87.34
2022-09-13T18:52:20.157Z,87.37
2022-09-13T18:54:53.060Z,87.43
2022-09-13T18:57:25.770Z,87.47
2022-09-13T19:00:00.294Z,87.60
2022-09-13T19:02:33.099Z,87.73
2022-09-13T19:05:07.095Z,88.01
2022-09-13T19:07:45.445Z,88.05
2022-09-13T19:10:18.161Z,88.50
2022-09-13T19:12:50.831Z,88.66
2022-09-13T19:15:24.329Z,88.96
2022-09-13T19:17:56.913Z,89.41
2022-09-13T19:20:29.791Z,89.34
2022-09-13T19:23:03.599Z,89.67
2022-09-13T19:25:38.769Z,89.81
2022-09-13T19:28:11.292Z,89.74
2022-09-13T19:30:43.921Z,89.66
2022-09-13T19:33:17.478Z,89.74
2022-09-13T19:35:50.428Z,89.85
2022-09-13T19:38:22.886Z,89.81
2022-09-13T19:41:01.636Z,89.71
2022-09-13T19:43:36.177Z,89.69
2022-09-13T19:46:10.832Z,89.53
2022-09-13T19:48:44.806Z,89.51
2022-09-13T19:51:18.883Z,89.64
2022-09-13T19:53:57.376Z,89.58
2022-09-13T19:56:32.879Z,89.60
2022-09-13T19:59:06.003Z,89.69
2022-09-13T20:01:41.283Z,89.77
2022-09-13T20:04:19.147Z,89.64
2022-09-13T20:06:52.991Z,90.01
2022-09-13T20:09:25.019Z,90.05
2022-09-13T20:12:00.840Z,90.16
2022-09-13T20:14:34.432Z,90.82
2022-09-13T20:17:07.245Z,91.27
2022-09-13T20:19:43.559Z,91.45
2022-09-13T20:22:18.672Z,91.83
2022-09-13T20:24:50.454Z,91.72
2022-09-13T20:27:22.438Z,91.89
2022-09-13T20:29:55.946Z,91.76
2022-09-13T20:32:28.068Z,92.15
2022-09-13T20:35:00.638Z,92.72
2022-09-13T20:37:32.474Z,93.03
2022-09-13T20:40:04.960Z,93.38
2022-09-13T20:42:39.813Z,93.57
2022-09-13T20:45:13.069Z,93.35
2022-09-13T20:47:45.195Z,93.30
2022-09-13T20:50:18.561Z,93.48
2022-09-13T20:52:50.523Z,93.57
2022-09-13T20:55:22.417Z,93.72
2022-09-13T21:01:07.826Z,93.39
2022-09-13T21:03:41.482Z,93.15
2022-09-13T21:06:13.690Z,93.08
2022-09-13T21:08:49.051Z,92.95
2022-09-13T21:11:23.048Z,92.79
2022-09-13T21:13:56.676Z,92.62
2022-09-13T21:16:31.861Z,92.75
2022-09-13T21:19:04.618Z,92.63
2022-09-13T21:22:14.708Z,92.72
2022-09-13T21:24:49.104Z,92.86
2022-09-13T21:27:29.444Z,93.09
2022-09-13T21:30:15.274Z,93.12
2022-09-13T21:32:54.139Z,93.55
2022-09-13T21:35:26.120Z,93.77
2022-09-13T21:37:58.121Z,93.87
2022-09-13T21:40:29.974Z,93.85
2022-09-13T21:43:01.849Z,93.91
2022-09-13T21:45:33.849Z,94.19
2022-09-13T21:48:06.330Z,94.54
2022-09-13T21:50:38.193Z,95.01
2022-09-13T21:53:10.057Z,95.12
2022-09-13T21:55:42.913Z,95.21
2022-09-13T21:58:14.877Z,95.22
2022-09-13T22:00:46.716Z,95.21
2022-09-13T22:03:19.189Z,95.35
2022-09-13T22:05:58.093Z,95.36
2022-09-13T22:08:33.320Z,95.35
2022-09-13T22:11:10.829Z,95.62
2022-09-13T22:13:45.992Z,95.66
2022-09-13T22:16:20.289Z,95.64
2022-09-13T22:18:54.425Z,95.67
2022-09-13T22:21:28.304Z,95.68
2022-09-13T22:24:00.634Z,95.60
2022-09-13T22:26:35.268Z,95.70
2022-09-13T22:29:07.980Z,95.82
2022-09-13T22:31:41.844Z,95.71
2022-09-13T22:34:16.913Z,95.61
2022-09-13T22:36:49.490Z,95.55
2022-09-13T22:39:21.301Z,95.62
2022-09-13T22:41:53.588Z,95.52
2022-09-13T22:44:25.345Z,95.58
2022-09-13T22:47:00.465Z,95.34
2022-09-13T22:49:32.421Z,95.46
2022-09-13T22:52:04.817Z,95.22
2022-09-13T22:54:36.603Z,95.18
2022-09-13T22:57:08.520Z,94.88
2022-09-13T22:59:40.393Z,94.93
2022-09-13T23:02:12.384Z,94.82
2022-09-13T23:04:44.851Z,94.76
2022-09-13T23:07:16.657Z,94.49
2022-09-13T23:09:49.003Z,94.44
2022-09-13T23:12:21.047Z,94.49
2022-09-13T23:14:52.950Z,94.42
2022-09-13T23:17:24.835Z,94.37
2022-09-13T23:19:56.691Z,94.33
2022-09-13T23:22:28.488Z,94.27
2022-09-13T23:25:00.476Z,94.31
2022-09-13T23:27:32.341Z,94.42
2022-09-13T23:30:04.505Z,94.35
2022-09-13T23:32:36.341Z,94.32
2022-09-13T23:35:09.783Z,94.53
2022-09-13T23:37:41.629Z,94.46
2022-09-13T23:40:15.037Z,94.71
2022-09-13T23:42:46.943Z,94.99
2022-09-13T23:45:18.929Z,95.04
2022-09-13T23:47:50.896Z,95.02
2022-09-13T23:50:22.826Z,95.29
2022-09-13T23:52:55.111Z,95.12
2022-09-13T23:55:26.861Z,95.29
2022-09-13T23:57:58.658Z,95.32
